Time,TemperatureF,DewpointF,PressureIn,WindDirection,WindDirectionDegrees,WindSpeedMPH,WindSpeedGustMPH,Humidity,HourlyPrecipIn,Conditions,Clouds,dailyrainin,SoftwareType,DateUTC
2013-02-21 00:00:00,27.3,-5.6,30.18,West,270,8.0,12.0,23,-99.99,,,0.21,meteohub,2013-02-21 05:00:00,
2013-02-21 00:05:00,27.3,-5.6,30.18,WNW,292,5.0,12.0,23,-99.99,,,0.21,meteohub,2013-02-21 05:05:00,
2013-02-21 00:10:00,27.3,-5.6,30.18,WNW,292,8.0,12.0,23,-99.99,,,0.21,meteohub,2013-02-21 05:10:00,
2013-02-21 00:15:00,27.1,-5.6,30.18,NW,315,10.0,12.0,23,-99.99,,,0.21,meteohub,2013-02-21 05:15:00,
2013-02-21 00:20:00,27.0,-3.3,30.18,NW,315,9.0,11.0,26,-99.99,,,0.21,meteohub,2013-02-21 05:20:00,
2013-02-21 00:25:00,26.2,-1.7,30.19,NW,315,6.0,10.0,29,-99.99,,,0.21,meteohub,2013-02-21 05:25:00,
2013-02-21 00:30:00,25.3,-1.1,30.19,WNW,292,11.0,11.0,31,-99.99,,,0.21,meteohub,2013-02-21 05:30:00,
2013-02-21 00:35:00,24.8,-0.8,30.20,NNE,22,6.0,11.0,32,-99.99,,,0.21,meteohub,2013-02-21 05:35:00,
2013-02-21 00:40:00,24.3,-0.6,30.20,NNW,338,4.0,11.0,33,-99.99,,,0.21,meteohub,2013-02-21 05:40:00,
2013-02-21 00:45:00,23.9,-0.9,30.21,WNW,292,3.0,11.0,33,-99.99,,,0.21,meteohub,2013-02-21 05:45:00,
2013-02-21 00:50:00,23.5,0.0,30.21,NW,315,2.0,6.0,35,-99.99,,,0.21,meteohub,2013-02-21 05:50:00,
2013-02-21 00:55:00,23.4,-0.2,30.21,WNW,292,4.0,6.0,35,-99.99,,,0.21,meteohub,2013-02-21 05:55:00,
2013-02-21 01:00:00,23.2,-0.4,30.21,NNE,22,3.0,6.0,35,-99.99,,,0.21,meteohub,2013-02-21 06:00:00,
2013-02-21 01:05:00,23.0,0.7,30.22,NW,315,4.0,6.0,37,-99.99,,,0.21,meteohub,2013-02-21 06:05:00,
2013-02-21 01:10:00,22.8,0.5,30.22,NNW,338,4.0,6.0,37,-99.99,,,0.21,meteohub,2013-02-21 06:10:00,
2013-02-21 01:15:00,22.8,2.1,30.25,NW,315,6.0,7.0,40,-99.99,,,0.21,meteohub,2013-02-21 06:15:00,
2013-02-21 01:21:00,22.6,3.0,30.25,WNW,292,8.0,8.0,42,-99.99,,,0.21,meteohub,2013-02-21 06:21:00,
2013-02-21 01:26:00,22.6,2.5,30.25,NW,315,4.0,8.0,41,-99.99,,,0.21,meteohub,2013-02-21 06:26:00,
2013-02-21 01:31:00,22.6,1.9,30.22,NW,315,6.0,8.0,40,-99.99,,,0.21,meteohub,2013-02-21 06:31:00,
2013-02-21 01:36:00,22.6,1.4,30.22,West,270,2.0,8.0,39,-99.99,,,0.21,meteohub,2013-02-21 06:36:00,
2013-02-21 01:41:00,22.6,0.9,30.22,WSW,248,0.0,6.0,38,-99.99,,,0.21,meteohub,2013-02-21 06:41:00,
2013-02-21 01:46:00,22.8,1.0,30.25,WNW,292,5.0,6.0,38,-99.99,,,0.21,meteohub,2013-02-21 06:46:00,
2013-02-21 01:51:00,22.8,1.6,30.25,NW,315,6.0,9.0,39,-99.99,,,0.21,meteohub,2013-02-21 06:51:00,
2013-02-21 01:56:00,22.8,2.1,30.25,NW,315,6.0,9.0,40,-99.99,,,0.21,meteohub,2013-02-21 06:56:00,
2013-02-21 02:01:00,22.8,1.6,30.25,NW,315,4.0,9.0,39,-99.99,,,0.21,meteohub,2013-02-21 07:01:00,
2013-02-21 02:06:00,22.8,1.0,30.25,NNW,338,3.0,8.0,38,-99.99,,,0.21,meteohub,2013-02-21 07:06:00,
2013-02-21 02:11:00,23.4,0.3,30.25,NW,315,3.0,7.0,36,-99.99,,,0.21,meteohub,2013-02-21 07:11:00,
2013-02-21 02:16:00,23.5,0.0,30.25,NW,315,3.0,6.0,35,-99.99,,,0.21,meteohub,2013-02-21 07:16:00,
2013-02-21 02:21:00,23.9,0.3,30.24,WNW,292,3.0,6.0,35,-99.99,,,0.21,meteohub,2013-02-21 07:21:00,
2013-02-21 02:26:00,23.7,0.1,30.24,WNW,292,5.0,6.0,35,-99.99,,,0.21,meteohub,2013-02-21 07:26:00,
2013-02-21 02:31:00,23.9,-0.4,30.24,WNW,292,4.0,6.0,34,-99.99,,,0.21,meteohub,2013-02-21 07:31:00,
2013-02-21 02:36:00,24.3,0.0,30.24,North,0,9.0,9.0,34,-99.99,,,0.21,meteohub,2013-02-21 07:36:00,
2013-02-21 02:41:00,23.7,0.1,30.24,NW,315,4.0,9.0,35,-99.99,,,0.21,meteohub,2013-02-21 07:41:00,
2013-02-21 02:46:00,23.5,0.5,30.25,NNW,338,7.0,9.0,36,-99.99,,,0.21,meteohub,2013-02-21 07:46:00,
2013-02-21 02:51:00,23.2,0.1,30.25,WNW,292,6.0,9.0,36,-99.99,,,0.21,meteohub,2013-02-21 07:51:00,
2013-02-21 02:56:00,22.8,1.0,30.25,WNW,292,6.0,9.0,38,-99.99,,,0.21,meteohub,2013-02-21 07:56:00,
2013-02-21 03:01:00,22.5,1.8,30.25,NNW,338,8.0,10.0,40,-99.99,,,0.21,meteohub,2013-02-21 08:01:00,
2013-02-21 03:06:00,22.1,2.5,30.26,WNW,292,7.0,10.0,42,-99.99,,,0.21,meteohub,2013-02-21 08:06:00,
2013-02-21 03:11:00,21.9,2.8,30.26,WNW,292,7.0,10.0,43,-99.99,,,0.21,meteohub,2013-02-21 08:11:00,
2013-02-21 03:17:00,21.9,2.8,30.26,NW,315,8.0,11.0,43,-99.99,,,0.21,meteohub,2013-02-21 08:17:00,
2013-02-21 03:22:00,21.7,2.7,30.26,NW,315,9.0,11.0,43,-99.99,,,0.21,meteohub,2013-02-21 08:22:00,
2013-02-21 03:27:00,21.6,3.0,30.26,WNW,292,7.0,13.0,44,-99.99,,,0.21,meteohub,2013-02-21 08:27:00,
2013-02-21 03:32:00,21.6,3.0,30.23,WNW,292,8.0,13.0,44,-99.99,,,0.21,meteohub,2013-02-21 08:32:00,
2013-02-21 03:37:00,21.6,3.0,30.23,NW,315,8.0,13.0,44,-99.99,,,0.21,meteohub,2013-02-21 08:37:00,
2013-02-21 03:42:00,21.7,2.7,30.22,NW,315,7.0,12.0,43,-99.99,,,0.21,meteohub,2013-02-21 08:42:00,
2013-02-21 03:47:00,21.7,2.7,30.26,North,0,7.0,12.0,43,-99.99,,,0.21,meteohub,2013-02-21 08:47:00,
2013-02-21 03:52:00,21.7,2.7,30.26,NW,315,9.0,11.0,43,-99.99,,,0.21,meteohub,2013-02-21 08:52:00,
2013-02-21 03:57:00,21.7,2.7,30.26,WNW,292,9.0,11.0,43,-99.99,,,0.21,meteohub,2013-02-21 08:57:00,
2013-02-21 04:02:00,21.9,2.8,30.26,NW,315,6.0,11.0,43,-99.99,,,0.21,meteohub,2013-02-21 09:02:00,
2013-02-21 04:07:00,21.9,2.3,30.26,WNW,292,5.0,11.0,42,-99.99,,,0.21,meteohub,2013-02-21 09:07:00,
2013-02-21 04:12:00,21.9,2.3,30.26,NW,315,6.0,9.0,42,-99.99,,,0.21,meteohub,2013-02-21 09:12:00,
2013-02-21 04:17:00,21.9,2.8,30.26,NW,315,6.0,8.0,43,-99.99,,,0.21,meteohub,2013-02-21 09:17:00,
2013-02-21 04:22:00,21.9,2.3,30.26,WNW,292,6.0,10.0,42,-99.99,,,0.21,meteohub,2013-02-21 09:22:00,
2013-02-21 04:27:00,22.1,2.5,30.26,WNW,292,6.0,10.0,42,-99.99,,,0.21,meteohub,2013-02-21 09:27:00,
2013-02-21 04:32:00,22.3,2.7,30.25,NW,315,6.0,10.0,42,-99.99,,,0.21,meteohub,2013-02-21 09:32:00,
2013-02-21 04:37:00,22.1,2.5,30.26,NW,315,6.0,9.0,42,-99.99,,,0.21,meteohub,2013-02-21 09:37:00,
2013-02-21 04:42:00,22.1,2.5,30.26,NW,315,4.0,8.0,42,-99.99,,,0.21,meteohub,2013-02-21 09:42:00,
2013-02-21 04:47:00,21.9,2.3,30.26,NW,315,6.0,8.0,42,-99.99,,,0.21,meteohub,2013-02-21 09:47:00,
2013-02-21 04:52:00,21.9,2.3,30.26,NW,315,5.0,8.0,42,-99.99,,,0.21,meteohub,2013-02-21 09:52:00,
2013-02-21 04:57:00,21.9,2.3,30.26,NW,315,5.0,8.0,42,-99.99,,,0.21,meteohub,2013-02-21 09:57:00,
2013-02-21 05:02:00,21.9,2.3,30.26,WNW,292,6.0,8.0,42,-99.99,,,0.21,meteohub,2013-02-21 10:02:00,
2013-02-21 05:07:00,21.9,2.3,30.26,WNW,292,6.0,6.0,42,-99.99,,,0.21,meteohub,2013-02-21 10:07:00,
2013-02-21 05:12:00,22.1,2.5,30.26,WNW,292,6.0,9.0,42,-99.99,,,0.21,meteohub,2013-02-21 10:12:00,
2013-02-21 05:17:00,22.3,2.7,30.25,NNW,338,6.0,9.0,42,-99.99,,,0.21,meteohub,2013-02-21 10:17:00,
2013-02-21 05:22:00,22.1,2.5,30.26,WNW,292,6.0,9.0,42,-99.99,,,0.21,meteohub,2013-02-21 10:22:00,
2013-02-21 05:27:00,22.1,2.5,30.26,WNW,292,6.0,11.0,42,-99.99,,,0.21,meteohub,2013-02-21 10:27:00,
2013-02-21 05:32:00,21.9,2.3,30.26,NW,315,9.0,11.0,42,-99.99,,,0.21,meteohub,2013-02-21 10:32:00,
2013-02-21 05:37:00,21.9,2.8,30.26,NW,315,8.0,11.0,43,-99.99,,,0.21,meteohub,2013-02-21 10:37:00,
2013-02-21 05:42:00,21.7,2.7,30.26,WNW,292,8.0,10.0,43,-99.99,,,0.21,meteohub,2013-02-21 10:42:00,
2013-02-21 05:47:00,21.6,2.5,30.26,NW,315,10.0,11.0,43,-99.99,,,0.21,meteohub,2013-02-21 10:47:00,
2013-02-21 05:52:00,21.6,2.5,30.26,NW,315,7.0,11.0,43,-99.99,,,0.21,meteohub,2013-02-21 10:52:00,
2013-02-21 05:57:00,21.6,2.5,30.26,WNW,292,8.0,11.0,43,-99.99,,,0.21,meteohub,2013-02-21 10:57:00,
2013-02-21 06:02:00,21.6,2.5,30.30,WNW,292,5.0,11.0,43,-99.99,,,0.21,meteohub,2013-02-21 11:02:00,
2013-02-21 06:07:00,21.4,2.8,30.30,NW,315,8.0,11.0,44,-99.99,,,0.21,meteohub,2013-02-21 11:07:00,
2013-02-21 06:12:00,21.4,2.8,30.30,NW,315,8.0,10.0,44,-99.99,,,0.21,meteohub,2013-02-21 11:12:00,
2013-02-21 06:17:00,21.4,2.8,30.30,NNW,338,6.0,10.0,44,-99.99,,,0.21,meteohub,2013-02-21 11:17:00,
2013-02-21 06:22:00,21.4,2.8,30.30,NW,315,9.0,10.0,44,-99.99,,,0.21,meteohub,2013-02-21 11:22:00,
2013-02-21 06:27:00,21.2,2.7,30.30,NW,315,7.0,10.0,44,-99.99,,,0.21,meteohub,2013-02-21 11:27:00,
2013-02-21 06:32:00,21.2,2.7,30.30,NW,315,6.0,10.0,44,-99.99,,,0.21,meteohub,2013-02-21 11:32:00,
2013-02-21 06:37:00,21.4,2.8,30.30,WNW,292,8.0,10.0,44,-99.99,,,0.21,meteohub,2013-02-21 11:37:00,
2013-02-21 06:42:00,21.4,2.8,30.30,WNW,292,6.0,9.0,44,-99.99,,,0.21,meteohub,2013-02-21 11:42:00,
2013-02-21 06:47:00,21.4,2.5,30.30,WNW,292,6.0,9.0,43,-99.99,,,0.21,meteohub,2013-02-21 11:47:00,
2013-02-21 06:52:00,21.4,2.5,30.30,NW,315,6.0,9.0,43,-99.99,,,0.21,meteohub,2013-02-21 11:52:00,
2013-02-21 06:57:00,21.6,2.5,30.30,WNW,292,6.0,9.0,43,-99.99,,,0.21,meteohub,2013-02-21 11:57:00,
2013-02-21 07:02:00,21.7,2.7,30.30,NNW,338,6.0,9.0,43,-99.99,,,0.21,meteohub,2013-02-21 12:02:00,
2013-02-21 07:07:00,21.7,2.7,30.30,WNW,292,8.0,9.0,43,-99.99,,,0.21,meteohub,2013-02-21 12:07:00,
2013-02-21 07:12:00,21.7,2.7,30.30,NW,315,6.0,9.0,43,-99.99,,,0.21,meteohub,2013-02-21 12:12:00,
2013-02-21 07:17:00,21.9,2.8,30.29,NW,315,8.0,10.0,43,-99.99,,,0.21,meteohub,2013-02-21 12:17:00,
2013-02-21 07:22:00,21.9,2.3,30.29,NW,315,6.0,10.0,42,-99.99,,,0.21,meteohub,2013-02-21 12:22:00,
2013-02-21 07:27:00,21.9,2.3,30.29,WNW,292,6.0,9.0,42,-99.99,,,0.21,meteohub,2013-02-21 12:27:00,
2013-02-21 07:32:00,22.1,2.5,30.32,WNW,292,8.0,9.0,42,-99.99,,,0.21,meteohub,2013-02-21 12:32:00,
2013-02-21 07:37:00,22.1,3.0,30.32,WNW,292,9.0,11.0,43,-99.99,,,0.21,meteohub,2013-02-21 12:37:00,
2013-02-21 07:42:00,22.3,2.7,30.32,WNW,292,6.0,11.0,42,-99.99,,,0.21,meteohub,2013-02-21 12:42:00,
2013-02-21 07:47:00,22.5,2.8,30.32,NW,315,6.0,11.0,42,-99.99,,,0.21,meteohub,2013-02-21 12:47:00,
2013-02-21 07:52:00,22.6,3.0,30.32,NW,315,6.0,9.0,42,-99.99,,,0.21,meteohub,2013-02-21 12:52:00,
2013-02-21 07:57:00,22.8,3.2,30.32,North,0,5.0,9.0,42,-99.99,,,0.21,meteohub,2013-02-21 12:57:00,
2013-02-21 08:02:00,23.0,3.4,30.32,NW,315,6.0,10.0,42,-99.99,,,0.21,meteohub,2013-02-21 13:02:00,
2013-02-21 08:07:00,23.4,2.7,30.31,NW,315,8.0,10.0,40,-99.99,,,0.21,meteohub,2013-02-21 13:07:00,
2013-02-21 08:12:00,23.7,2.5,30.31,WNW,292,6.0,9.0,39,-99.99,,,0.21,meteohub,2013-02-21 13:12:00,
2013-02-21 08:17:00,24.1,2.1,30.31,NW,315,6.0,9.0,38,-99.99,,,0.21,meteohub,2013-02-21 13:17:00,
2013-02-21 08:22:00,24.4,2.5,30.30,NW,315,5.0,9.0,38,-99.99,,,0.21,meteohub,2013-02-21 13:22:00,
2013-02-21 08:27:00,24.8,2.8,30.30,WNW,292,6.0,9.0,38,-99.99,,,0.21,meteohub,2013-02-21 13:27:00,
2013-02-21 08:32:00,25.2,2.7,30.30,NW,315,6.0,9.0,37,-99.99,,,0.21,meteohub,2013-02-21 13:32:00,
2013-02-21 08:37:00,25.5,2.3,30.30,NW,315,6.0,9.0,36,-99.99,,,0.21,meteohub,2013-02-21 13:37:00,
2013-02-21 08:42:00,25.9,2.7,30.29,WNW,292,6.0,9.0,36,-99.99,,,0.21,meteohub,2013-02-21 13:42:00,
2013-02-21 08:47:00,26.2,2.3,30.29,North,0,6.0,9.0,35,-99.99,,,0.21,meteohub,2013-02-21 13:47:00,
2013-02-21 08:52:00,26.6,2.7,30.28,WNW,292,8.0,9.0,35,-99.99,,,0.21,meteohub,2013-02-21 13:52:00,
2013-02-21 08:57:00,27.0,2.3,30.28,NW,315,5.0,9.0,34,-99.99,,,0.21,meteohub,2013-02-21 13:57:00,
2013-02-21 09:02:00,27.5,2.8,30.28,NW,315,5.0,9.0,34,-99.99,,,0.21,meteohub,2013-02-21 14:02:00,
2013-02-21 09:07:00,27.9,3.2,30.27,NW,315,6.0,9.0,34,-99.99,,,0.21,meteohub,2013-02-21 14:07:00,
2013-02-21 09:12:00,28.4,3.6,30.27,NW,315,5.0,8.0,34,-99.99,,,0.21,meteohub,2013-02-21 14:12:00,
2013-02-21 09:17:00,28.8,3.4,30.30,NW,315,6.0,8.0,33,-99.99,,,0.21,meteohub,2013-02-21 14:17:00,
2013-02-21 09:22:00,29.1,3.6,30.30,NW,315,6.0,8.0,33,-99.99,,,0.21,meteohub,2013-02-21 14:22:00,
2013-02-21 09:27:00,29.5,3.4,30.29,NW,315,6.0,9.0,32,-99.99,,,0.21,meteohub,2013-02-21 14:27:00,
2013-02-21 09:32:00,30.0,3.7,30.25,WNW,292,6.0,9.0,32,-99.99,,,0.21,meteohub,2013-02-21 14:32:00,
2013-02-21 09:37:00,30.4,4.1,30.25,NW,315,3.0,9.0,32,-99.99,,,0.21,meteohub,2013-02-21 14:37:00,
2013-02-21 09:42:00,30.7,4.5,30.25,NW,315,6.0,9.0,32,-99.99,,,0.21,meteohub,2013-02-21 14:42:00,
2013-02-21 09:47:00,31.1,4.6,30.28,NW,315,6.0,8.0,32,-99.99,,,0.21,meteohub,2013-02-21 14:47:00,
2013-02-21 09:52:00,31.5,5.0,30.27,NNW,338,4.0,9.0,32,-99.99,,,0.21,meteohub,2013-02-21 14:52:00,
2013-02-21 09:57:00,32.2,5.0,30.27,NW,315,6.0,9.0,31,-99.99,,,0.21,meteohub,2013-02-21 14:57:00,
2013-02-21 10:02:00,32.7,5.5,30.27,NW,315,6.0,9.0,31,-99.99,,,0.21,meteohub,2013-02-21 15:02:00,
2013-02-21 10:07:00,33.1,5.9,30.26,NW,315,6.0,9.0,31,-99.99,,,0.21,meteohub,2013-02-21 15:07:00,
2013-02-21 10:12:00,33.6,6.3,30.26,NW,315,8.0,9.0,31,-99.99,,,0.21,meteohub,2013-02-21 15:12:00,
2013-02-21 10:17:00,33.8,6.4,30.26,NW,315,5.0,9.0,31,-99.99,,,0.21,meteohub,2013-02-21 15:17:00,
2013-02-21 10:22:00,34.2,6.8,30.25,NW,315,5.0,9.0,31,-99.99,,,0.21,meteohub,2013-02-21 15:22:00,
2013-02-21 10:27:00,34.7,7.2,30.25,NW,315,4.0,8.0,31,-99.99,,,0.21,meteohub,2013-02-21 15:27:00,
2013-02-21 10:32:00,35.1,6.8,30.25,NNW,338,6.0,7.0,30,-99.99,,,0.21,meteohub,2013-02-21 15:32:00,
2013-02-21 10:37:00,35.4,7.2,30.24,NW,315,6.0,7.0,30,-99.99,,,0.21,meteohub,2013-02-21 15:37:00,
2013-02-21 10:42:00,36.0,7.7,30.24,NW,315,6.0,8.0,30,-99.99,,,0.21,meteohub,2013-02-21 15:42:00,
2013-02-21 10:47:00,36.7,8.2,30.23,WNW,292,4.0,8.0,30,-99.99,,,0.21,meteohub,2013-02-21 15:47:00,
2013-02-21 10:52:00,37.0,8.6,30.23,NNW,338,4.0,8.0,30,-99.99,,,0.21,meteohub,2013-02-21 15:52:00,
2013-02-21 10:57:00,37.8,8.4,30.22,WNW,292,6.0,6.0,29,-99.99,,,0.21,meteohub,2013-02-21 15:57:00,
2013-02-21 11:02:00,38.3,9.0,30.22,NW,315,4.0,6.0,29,-99.99,,,0.21,meteohub,2013-02-21 16:02:00,
2013-02-21 11:07:00,38.8,9.3,30.21,North,0,5.0,6.0,29,-99.99,,,0.21,meteohub,2013-02-21 16:07:00,
2013-02-21 11:12:00,39.2,7.3,30.21,NW,315,6.0,6.0,26,-99.99,,,0.21,meteohub,2013-02-21 16:12:00,
2013-02-21 11:17:00,39.6,7.5,30.21,NNW,338,6.0,7.0,26,-99.99,,,0.21,meteohub,2013-02-21 16:17:00,
2013-02-21 11:22:00,39.7,7.7,30.20,NW,315,6.0,7.0,26,-99.99,,,0.21,meteohub,2013-02-21 16:22:00,
2013-02-21 11:27:00,40.1,5.4,30.20,WNW,292,6.0,8.0,23,-99.99,,,0.21,meteohub,2013-02-21 16:27:00,
2013-02-21 11:32:00,40.3,5.5,30.20,NW,315,5.0,8.0,23,-99.99,,,0.21,meteohub,2013-02-21 16:32:00,
2013-02-21 11:37:00,40.6,8.6,30.20,NW,315,4.0,8.0,26,-99.99,,,0.21,meteohub,2013-02-21 16:37:00,
2013-02-21 11:42:00,41.0,6.1,30.19,WNW,292,6.0,8.0,23,-99.99,,,0.21,meteohub,2013-02-21 16:42:00,
2013-02-21 11:47:00,41.4,6.4,30.19,West,270,3.0,8.0,23,-99.99,,,0.21,meteohub,2013-02-21 16:47:00,
2013-02-21 11:52:00,41.7,6.8,30.19,WNW,292,3.0,8.0,23,-99.99,,,0.21,meteohub,2013-02-21 16:52:00,
2013-02-21 11:57:00,42.1,7.0,30.19,NW,315,3.0,6.0,23,-99.99,,,0.21,meteohub,2013-02-21 16:57:00,
2013-02-21 12:02:00,42.3,7.2,30.18,WNW,292,3.0,6.0,23,-99.99,,,0.21,meteohub,2013-02-21 17:02:00,
2013-02-21 12:07:00,42.8,7.7,30.18,WSW,248,3.0,6.0,23,-99.99,,,0.21,meteohub,2013-02-21 17:07:00,
2013-02-21 12:12:00,43.3,8.1,30.17,NW,315,4.0,6.0,23,-99.99,,,0.21,meteohub,2013-02-21 17:12:00,
2013-02-21 12:17:00,43.5,8.2,30.17,NW,315,3.0,6.0,23,-99.99,,,0.21,meteohub,2013-02-21 17:17:00,
2013-02-21 12:22:00,44.1,8.8,30.17,NNE,22,4.0,6.0,23,-99.99,,,0.21,meteohub,2013-02-21 17:22:00,
2013-02-21 12:27:00,45.0,8.4,30.16,ENE,68,3.0,6.0,22,-99.99,,,0.21,meteohub,2013-02-21 17:27:00,
2013-02-21 12:32:00,45.5,9.0,30.12,SSW,202,2.0,4.0,22,-99.99,,,0.21,meteohub,2013-02-21 17:32:00,
2013-02-21 12:37:00,46.2,7.5,30.12,SSE,158,3.0,4.0,20,-99.99,,,0.21,meteohub,2013-02-21 17:37:00,
2013-02-21 12:42:00,46.8,6.8,30.11,South,180,10.0,10.0,19,-99.99,,,0.21,meteohub,2013-02-21 17:42:00,
2013-02-21 12:47:00,47.5,10.6,30.11,South,180,2.0,10.0,22,-99.99,,,0.21,meteohub,2013-02-21 17:47:00,
2013-02-21 12:52:00,48.0,7.9,30.10,ESE,112,5.0,10.0,19,-99.99,,,0.21,meteohub,2013-02-21 17:52:00,
2013-02-21 12:57:00,48.7,10.6,30.10,SSE,158,4.0,10.0,21,-99.99,,,0.21,meteohub,2013-02-21 17:57:00,
2013-02-21 13:02:00,49.1,10.9,30.09,SE,135,1.0,8.0,21,-99.99,,,0.21,meteohub,2013-02-21 18:02:00,
2013-02-21 13:07:00,49.3,11.1,30.09,SSE,158,2.0,8.0,21,-99.99,,,0.21,meteohub,2013-02-21 18:07:00,
2013-02-21 13:12:00,50.2,11.8,30.09,SSE,158,5.0,8.0,21,-99.99,,,0.21,meteohub,2013-02-21 18:12:00,
2013-02-21 13:17:00,50.2,9.7,30.09,SSW,202,2.0,9.0,19,-99.99,,,0.21,meteohub,2013-02-21 18:17:00,
2013-02-21 13:22:00,50.5,12.2,30.08,South,180,6.0,9.0,21,-99.99,,,0.21,meteohub,2013-02-21 18:22:00,
2013-02-21 13:27:00,50.7,10.0,30.08,SE,135,5.0,10.0,19,-99.99,,,0.21,meteohub,2013-02-21 18:27:00,
2013-02-21 13:32:00,51.1,10.4,30.08,NNE,22,1.0,10.0,19,-99.99,,,0.21,meteohub,2013-02-21 18:32:00,
2013-02-21 13:37:00,51.6,13.1,30.07,SSE,158,4.0,9.0,21,-99.99,,,0.21,meteohub,2013-02-21 18:37:00,
2013-02-21 13:42:00,52.5,10.4,30.07,SE,135,6.0,8.0,18,-99.99,,,0.21,meteohub,2013-02-21 18:42:00,
2013-02-21 13:47:00,54.0,11.5,30.06,South,180,4.0,8.0,18,-99.99,,,0.21,meteohub,2013-02-21 18:47:00,
2013-02-21 13:52:00,55.6,11.5,30.04,SE,135,6.0,8.0,17,-99.99,,,0.21,meteohub,2013-02-21 18:52:00,
2013-02-21 13:57:00,56.3,12.2,30.04,South,180,5.0,9.0,17,-99.99,,,0.21,meteohub,2013-02-21 18:57:00,
2013-02-21 14:02:00,56.5,12.2,30.00,SSE,158,6.0,9.0,17,-99.99,,,0.21,meteohub,2013-02-21 19:02:00,
2013-02-21 14:07:00,56.5,12.2,30.00,SSE,158,9.0,11.0,17,-99.99,,,0.21,meteohub,2013-02-21 19:07:00,
2013-02-21 14:12:00,56.8,12.6,30.00,SSE,158,6.0,11.0,17,-99.99,,,0.21,meteohub,2013-02-21 19:12:00,
2013-02-21 14:17:00,57.2,12.9,30.03,ESE,112,3.0,11.0,17,-99.99,,,0.21,meteohub,2013-02-21 19:17:00,
2013-02-21 14:22:00,58.1,13.6,30.02,SSE,158,8.0,10.0,17,-99.99,,,0.21,meteohub,2013-02-21 19:22:00,
2013-02-21 14:27:00,58.3,13.8,30.02,SSE,158,6.0,9.0,17,-99.99,,,0.21,meteohub,2013-02-21 19:27:00,
2013-02-21 14:32:00,58.3,13.8,29.99,South,180,6.0,9.0,17,-99.99,,,0.21,meteohub,2013-02-21 19:32:00,
2013-02-21 14:37:00,58.3,13.8,29.99,SSE,158,6.0,9.0,17,-99.99,,,0.21,meteohub,2013-02-21 19:37:00,
2013-02-21 14:42:00,58.1,13.6,29.99,ESE,112,8.0,9.0,17,-99.99,,,0.21,meteohub,2013-02-21 19:42:00,
2013-02-21 14:47:00,57.4,13.1,30.03,SSE,158,6.0,9.0,17,-99.99,,,0.21,meteohub,2013-02-21 19:47:00,
2013-02-21 14:52:00,57.2,12.9,30.03,South,180,3.0,9.0,17,-99.99,,,0.21,meteohub,2013-02-21 19:52:00,
2013-02-21 14:57:00,57.2,12.9,30.03,SSE,158,6.0,9.0,17,-99.99,,,0.21,meteohub,2013-02-21 19:57:00,
2013-02-21 15:02:00,56.7,12.4,30.03,SSE,158,6.0,9.0,17,-99.99,,,0.21,meteohub,2013-02-21 20:02:00,
2013-02-21 15:07:00,55.9,11.8,30.04,SSE,158,4.0,9.0,17,-99.99,,,0.21,meteohub,2013-02-21 20:07:00,
2013-02-21 15:12:00,54.7,8.1,30.05,South,180,6.0,9.0,15,-99.99,,,0.21,meteohub,2013-02-21 20:12:00,
2013-02-21 15:17:00,54.0,7.5,30.06,SSE,158,6.0,10.0,15,-99.99,,,0.21,meteohub,2013-02-21 20:17:00,
2013-02-21 15:22:00,53.4,11.1,30.06,SSE,158,6.0,10.0,18,-99.99,,,0.21,meteohub,2013-02-21 20:22:00,
2013-02-21 15:27:00,52.9,8.1,30.06,SE,135,6.0,10.0,16,-99.99,,,0.21,meteohub,2013-02-21 20:27:00,
2013-02-21 15:33:00,52.0,7.3,30.07,SE,135,6.0,10.0,16,-99.99,,,0.21,meteohub,2013-02-21 20:33:00,
2013-02-21 15:38:00,51.4,6.8,30.07,SE,135,8.0,10.0,16,-99.99,,,0.21,meteohub,2013-02-21 20:38:00,
2013-02-21 15:43:00,50.7,6.3,30.08,SSE,158,6.0,10.0,16,-99.99,,,0.21,meteohub,2013-02-21 20:43:00,
2013-02-21 15:48:00,50.9,6.4,30.08,South,180,8.0,9.0,16,-99.99,,,0.21,meteohub,2013-02-21 20:48:00,
2013-02-21 15:53:00,50.5,6.1,30.08,SE,135,9.0,11.0,16,-99.99,,,0.21,meteohub,2013-02-21 20:53:00,
2013-02-21 15:58:00,50.0,5.7,30.09,SSE,158,8.0,11.0,16,-99.99,,,0.21,meteohub,2013-02-21 20:58:00,
2013-02-21 16:03:00,49.5,9.0,30.09,SSE,158,8.0,11.0,19,-99.99,,,0.21,meteohub,2013-02-21 21:03:00,
2013-02-21 16:08:00,48.9,8.6,30.09,South,180,6.0,13.0,19,-99.99,,,0.21,meteohub,2013-02-21 21:08:00,
2013-02-21 16:13:00,48.4,8.1,30.10,SSE,158,8.0,13.0,19,-99.99,,,0.21,meteohub,2013-02-21 21:13:00,
2013-02-21 16:18:00,48.0,7.9,30.10,SSE,158,8.0,11.0,19,-99.99,,,0.21,meteohub,2013-02-21 21:18:00,
2013-02-21 16:23:00,47.7,7.5,30.11,SSE,158,7.0,11.0,19,-99.99,,,0.21,meteohub,2013-02-21 21:23:00,
2013-02-21 16:28:00,47.5,7.3,30.11,SSE,158,8.0,11.0,19,-99.99,,,0.21,meteohub,2013-02-21 21:28:00,
2013-02-21 16:33:00,47.3,7.2,30.11,SSE,158,8.0,11.0,19,-99.99,,,0.21,meteohub,2013-02-21 21:33:00,
2013-02-21 16:38:00,46.9,7.0,30.11,SE,135,7.0,11.0,19,-99.99,,,0.21,meteohub,2013-02-21 21:38:00,
2013-02-21 16:43:00,46.9,7.0,30.11,SSE,158,8.0,11.0,19,-99.99,,,0.21,meteohub,2013-02-21 21:43:00,
2013-02-21 16:48:00,46.6,6.6,30.12,SSE,158,7.0,10.0,19,-99.99,,,0.21,meteohub,2013-02-21 21:48:00,
2013-02-21 16:53:00,46.4,6.4,30.12,SSE,158,5.0,10.0,19,-99.99,,,0.21,meteohub,2013-02-21 21:53:00,
2013-02-21 16:58:00,46.2,7.5,30.12,SSE,158,6.0,10.0,20,-99.99,,,0.21,meteohub,2013-02-21 21:58:00,
2013-02-21 17:03:00,46.0,7.3,30.12,SSE,158,5.0,10.0,20,-99.99,,,0.21,meteohub,2013-02-21 22:03:00,
2013-02-21 17:08:00,45.9,7.2,30.12,South,180,6.0,8.0,20,-99.99,,,0.21,meteohub,2013-02-21 22:08:00,
2013-02-21 17:13:00,45.7,7.0,30.12,SSE,158,6.0,8.0,20,-99.99,,,0.21,meteohub,2013-02-21 22:13:00,
2013-02-21 17:18:00,45.3,6.6,30.12,SSE,158,6.0,9.0,20,-99.99,,,0.21,meteohub,2013-02-21 22:18:00,
2013-02-21 17:23:00,45.0,6.4,30.13,SSE,158,6.0,9.0,20,-99.99,,,0.21,meteohub,2013-02-21 22:23:00,
2013-02-21 17:28:00,44.6,6.1,30.13,SSE,158,6.0,9.0,20,-99.99,,,0.21,meteohub,2013-02-21 22:28:00,
2013-02-21 17:33:00,44.2,5.7,30.13,SSE,158,8.0,8.0,20,-99.99,,,0.21,meteohub,2013-02-21 22:33:00,
2013-02-21 17:38:00,44.1,5.7,30.14,SSE,158,7.0,8.0,20,-99.99,,,0.21,meteohub,2013-02-21 22:38:00,
2013-02-21 17:43:00,43.7,5.4,30.14,SSE,158,6.0,9.0,20,-99.99,,,0.21,meteohub,2013-02-21 22:43:00,
2013-02-21 17:48:00,43.5,5.2,30.14,SSE,158,8.0,9.0,20,-99.99,,,0.21,meteohub,2013-02-21 22:48:00,
2013-02-21 17:53:00,43.3,5.0,30.14,South,180,9.0,12.0,20,-99.99,,,0.21,meteohub,2013-02-21 22:53:00,
2013-02-21 17:58:00,43.2,4.8,30.14,SSE,158,8.0,12.0,20,-99.99,,,0.21,meteohub,2013-02-21 22:58:00,
2013-02-21 18:04:00,43.0,4.8,30.14,SSE,158,8.0,12.0,20,-99.99,,,0.21,meteohub,2013-02-21 23:04:00,
2013-02-21 18:09:00,42.8,7.7,30.14,SSE,158,8.0,11.0,23,-99.99,,,0.21,meteohub,2013-02-21 23:09:00,
2013-02-21 18:14:00,42.6,7.5,30.15,SSE,158,9.0,11.0,23,-99.99,,,0.21,meteohub,2013-02-21 23:14:00,
2013-02-21 18:19:00,42.4,7.3,30.18,SSE,158,8.0,11.0,23,-99.99,,,0.21,meteohub,2013-02-21 23:19:00,
2013-02-21 18:24:00,42.3,7.2,30.18,SSE,158,7.0,11.0,23,-99.99,,,0.21,meteohub,2013-02-21 23:24:00,
2013-02-21 18:29:00,42.1,7.0,30.19,SSE,158,8.0,11.0,23,-99.99,,,0.21,meteohub,2013-02-21 23:29:00,
2013-02-21 18:34:00,41.9,7.0,30.19,SSE,158,6.0,11.0,23,-99.99,,,0.21,meteohub,2013-02-21 23:34:00,
2013-02-21 18:39:00,41.7,6.8,30.19,SSE,158,8.0,10.0,23,-99.99,,,0.21,meteohub,2013-02-21 23:39:00,
2013-02-21 18:44:00,41.5,9.3,30.19,SSE,158,7.0,10.0,26,-99.99,,,0.21,meteohub,2013-02-21 23:44:00,
2013-02-21 18:49:00,41.4,9.1,30.19,SSE,158,9.0,10.0,26,-99.99,,,0.21,meteohub,2013-02-21 23:49:00,
2013-02-21 18:54:00,41.4,9.1,30.19,SSE,158,7.0,10.0,26,-99.99,,,0.21,meteohub,2013-02-21 23:54:00,
2013-02-21 18:59:00,41.2,9.0,30.16,SSE,158,8.0,11.0,26,-99.99,,,0.21,meteohub,2013-02-21 23:59:00,
2013-02-21 19:04:00,41.0,10.4,30.16,SSE,158,7.0,11.0,28,-99.99,,,0.21,meteohub,2013-02-22 00:04:00,
2013-02-21 19:09:00,40.8,10.4,30.16,SSE,158,8.0,11.0,28,-99.99,,,0.21,meteohub,2013-02-22 00:09:00,
2013-02-21 19:14:00,40.6,10.2,30.20,South,180,9.0,11.0,28,-99.99,,,0.21,meteohub,2013-02-22 00:14:00,
2013-02-21 19:19:00,40.6,10.2,30.20,SSE,158,8.0,12.0,28,-99.99,,,0.21,meteohub,2013-02-22 00:19:00,
2013-02-21 19:24:00,40.5,10.8,30.20,SSE,158,11.0,12.0,29,-99.99,,,0.21,meteohub,2013-02-22 00:24:00,
2013-02-21 19:29:00,40.5,10.8,30.17,SSE,158,9.0,12.0,29,-99.99,,,0.21,meteohub,2013-02-22 00:29:00,
2013-02-21 19:34:00,40.3,10.6,30.17,SSE,158,9.0,11.0,29,-99.99,,,0.21,meteohub,2013-02-22 00:34:00,
2013-02-21 19:39:00,40.1,10.4,30.17,SSE,158,10.0,13.0,29,-99.99,,,0.21,meteohub,2013-02-22 00:39:00,
2013-02-21 19:44:00,40.1,10.4,30.20,SSE,158,11.0,13.0,29,-99.99,,,0.21,meteohub,2013-02-22 00:44:00,
2013-02-21 19:49:00,39.9,10.4,30.20,SSW,202,9.0,13.0,29,-99.99,,,0.21,meteohub,2013-02-22 00:49:00,
2013-02-21 19:54:00,39.9,10.4,30.20,South,180,7.0,13.0,29,-99.99,,,0.21,meteohub,2013-02-22 00:54:00,
2013-02-21 20:00:00,39.9,10.4,30.20,SE,135,9.0,13.0,29,-99.99,,,0.21,meteohub,2013-02-22 01:00:00,
2013-02-21 20:05:00,39.7,10.2,30.20,SSE,158,9.0,13.0,29,-99.99,,,0.21,meteohub,2013-02-22 01:05:00,
2013-02-21 20:10:00,39.7,10.2,30.20,SSE,158,9.0,13.0,29,-99.99,,,0.21,meteohub,2013-02-22 01:10:00,
2013-02-21 20:15:00,39.7,10.2,30.17,SSE,158,9.0,12.0,29,-99.99,,,0.21,meteohub,2013-02-22 01:15:00,
2013-02-21 20:20:00,39.7,10.2,30.17,SSE,158,8.0,12.0,29,-99.99,,,0.21,meteohub,2013-02-22 01:20:00,
2013-02-21 20:25:00,39.6,10.0,30.17,SSE,158,9.0,13.0,29,-99.99,,,0.21,meteohub,2013-02-22 01:25:00,
2013-02-21 20:30:00,39.6,10.0,30.21,SSE,158,10.0,13.0,29,-99.99,,,0.21,meteohub,2013-02-22 01:30:00,
2013-02-21 20:35:00,39.6,10.0,30.21,SSE,158,10.0,13.0,29,-99.99,,,0.21,meteohub,2013-02-22 01:35:00,
2013-02-21 20:40:00,39.6,10.0,30.21,SSE,158,9.0,13.0,29,-99.99,,,0.21,meteohub,2013-02-22 01:40:00,
2013-02-21 20:45:00,39.6,10.0,30.21,SSE,158,11.0,12.0,29,-99.99,,,0.21,meteohub,2013-02-22 01:45:00,
2013-02-21 20:50:00,39.7,10.2,30.20,SSE,158,10.0,13.0,29,-99.99,,,0.21,meteohub,2013-02-22 01:50:00,
2013-02-21 20:55:00,39.7,10.2,30.20,SSE,158,12.0,13.0,29,-99.99,,,0.21,meteohub,2013-02-22 01:55:00,
2013-02-21 21:00:00,39.7,10.2,30.20,SSE,158,7.0,13.0,29,-99.99,,,0.21,meteohub,2013-02-22 02:00:00,
2013-02-21 21:05:00,39.7,10.2,30.20,SSW,202,11.0,13.0,29,-99.99,,,0.21,meteohub,2013-02-22 02:05:00,
2013-02-21 21:10:00,39.7,10.2,30.20,SSE,158,8.0,13.0,29,-99.99,,,0.21,meteohub,2013-02-22 02:10:00,
2013-02-21 21:15:00,39.7,10.2,30.20,SSW,202,9.0,13.0,29,-99.99,,,0.21,meteohub,2013-02-22 02:15:00,
2013-02-21 21:20:00,39.7,10.2,30.20,SSE,158,9.0,11.0,29,-99.99,,,0.21,meteohub,2013-02-22 02:20:00,
2013-02-21 21:25:00,39.7,10.2,30.20,SSE,158,8.0,11.0,29,-99.99,,,0.21,meteohub,2013-02-22 02:25:00,
2013-02-21 21:30:00,39.6,10.0,30.21,SSE,158,8.0,11.0,29,-99.99,,,0.21,meteohub,2013-02-22 02:30:00,
2013-02-21 21:35:00,39.6,10.0,30.21,SSE,158,11.0,11.0,29,-99.99,,,0.21,meteohub,2013-02-22 02:35:00,
2013-02-21 21:40:00,39.6,10.0,30.21,SSE,158,9.0,11.0,29,-99.99,,,0.21,meteohub,2013-02-22 02:40:00,
2013-02-21 21:45:00,39.4,9.9,30.21,SSE,158,9.0,13.0,29,-99.99,,,0.21,meteohub,2013-02-22 02:45:00,
2013-02-21 21:50:00,39.2,9.7,30.21,SE,135,10.0,13.0,29,-99.99,,,0.21,meteohub,2013-02-22 02:50:00,
2013-02-21 21:55:00,39.0,10.2,30.21,SSE,158,13.0,17.0,30,-99.99,,,0.21,meteohub,2013-02-22 02:55:00,
2013-02-21 22:00:00,38.7,10.8,30.25,SSE,158,11.0,17.0,31,-99.99,,,0.21,meteohub,2013-02-22 03:00:00,
2013-02-21 22:05:00,37.9,12.7,30.25,SSE,158,11.0,17.0,35,-99.99,,,0.21,meteohub,2013-02-22 03:05:00,
2013-02-21 22:10:00,37.6,13.8,30.26,SSE,158,11.0,16.0,37,-99.99,,,0.21,meteohub,2013-02-22 03:10:00,
2013-02-21 22:15:00,37.4,14.2,30.26,SSE,158,13.0,17.0,38,-99.99,,,0.21,meteohub,2013-02-22 03:15:00,
2013-02-21 22:20:00,37.4,14.2,30.26,SSE,158,17.0,17.0,38,-99.99,,,0.21,meteohub,2013-02-22 03:20:00,
2013-02-21 22:25:00,37.2,15.3,30.26,SSE,158,17.0,19.0,40,-99.99,,,0.21,meteohub,2013-02-22 03:25:00,
2013-02-21 22:30:00,36.5,17.8,30.27,SSE,158,15.0,19.0,46,-99.99,,,0.21,meteohub,2013-02-22 03:30:00,
2013-02-21 22:36:00,35.8,19.0,30.27,SSE,158,13.0,19.0,50,-99.99,,,0.21,meteohub,2013-02-22 03:36:00,
2013-02-21 22:41:00,35.1,20.1,30.28,SSE,158,9.0,19.0,54,-99.99,,,0.21,meteohub,2013-02-22 03:41:00,
2013-02-21 22:46:00,34.7,21.6,30.28,ESE,112,9.0,19.0,58,-99.99,,,0.21,meteohub,2013-02-22 03:46:00,
2013-02-21 22:51:00,34.3,21.6,30.29,SE,135,7.0,16.0,59,-99.99,,,0.21,meteohub,2013-02-22 03:51:00,
2013-02-21 22:56:00,34.0,21.6,30.29,ESE,112,6.0,11.0,60,-99.99,,,0.21,meteohub,2013-02-22 03:56:00,
2013-02-21 23:01:00,33.8,22.6,30.29,SSE,158,7.0,11.0,63,-99.99,,,0.21,meteohub,2013-02-22 04:01:00,
2013-02-21 23:06:00,33.6,23.2,30.29,SSE,158,6.0,10.0,65,-99.99,,,0.21,meteohub,2013-02-22 04:06:00,
2013-02-21 23:11:00,33.3,23.9,30.30,SSE,158,8.0,9.0,68,-99.99,,,0.21,meteohub,2013-02-22 04:11:00,
2013-02-21 23:16:00,33.1,24.8,30.33,South,180,6.0,9.0,71,-99.99,,,0.21,meteohub,2013-02-22 04:16:00,
2013-02-21 23:21:00,32.9,25.2,30.33,SSE,158,8.0,8.0,73,-99.99,,,0.21,meteohub,2013-02-22 04:21:00,
2013-02-21 23:26:00,32.7,25.3,30.33,SSE,158,6.0,8.0,74,-99.99,,,0.21,meteohub,2013-02-22 04:26:00,
2013-02-21 23:31:00,32.7,26.1,30.30,SSE,158,8.0,8.0,76,-99.99,,,0.21,meteohub,2013-02-22 04:31:00,
2013-02-21 23:36:00,32.7,26.1,30.30,SSE,158,6.0,9.0,76,-99.99,,,0.21,meteohub,2013-02-22 04:36:00,
2013-02-21 23:41:00,32.5,26.2,30.30,SSE,158,8.0,9.0,77,-99.99,,,0.21,meteohub,2013-02-22 04:41:00,
2013-02-21 23:46:00,32.5,26.4,30.30,SSE,158,6.0,9.0,78,-99.99,,,0.21,meteohub,2013-02-22 04:46:00,
2013-02-21 23:51:00,32.5,27.1,30.30,SSE,158,8.0,9.0,80,-99.99,,,0.21,meteohub,2013-02-22 04:51:00,
2013-02-21 23:56:00,32.5,27.7,30.30,SSE,158,8.0,10.0,82,-99.99,,,0.21,meteohub,2013-02-22 04:56:00,